TAF KLRU
KLRU 081735Z 0818/0918 20008KT P6SM BKN250 FM082100 24012G20KT P6SM SCT250 FM090200 27008KT P6SM SCT250=
METAR KLRU
WC KLRU
WS KLRU
WV KLRU